sensor_id;sensor_type;location;lat;lon;timestamp;temperature;humidity
42973;DHT22;28610;51.214;6.962;2022-11-09T00:00:40;14.90;93.40
42973;DHT22;28610;51.214;6.962;2022-11-09T00:03:25;14.80;93.60
42973;DHT22;28610;51.214;6.962;2022-11-09T00:06:10;14.90;93.30
42973;DHT22;28610;51.214;6.962;2022-11-09T00:08:58;14.80;93.50
42973;DHT22;28610;51.214;6.962;2022-11-09T00:11:44;14.80;93.40
42973;DHT22;28610;51.214;6.962;2022-11-09T00:14:30;14.90;93.40
42973;DHT22;28610;51.214;6.962;2022-11-09T00:17:16;14.80;93.40
42973;DHT22;28610;51.214;6.962;2022-11-09T00:20:03;14.80;93.50
42973;DHT22;28610;51.214;6.962;2022-11-09T00:22:48;14.80;93.60
42973;DHT22;28610;51.214;6.962;2022-11-09T00:25:34;14.80;93.60
42973;DHT22;28610;51.214;6.962;2022-11-09T00:28:19;14.70;93.70
42973;DHT22;28610;51.214;6.962;2022-11-09T00:31:06;14.70;93.70
42973;DHT22;28610;51.214;6.962;2022-11-09T00:33:54;14.70;93.70
42973;DHT22;28610;51.214;6.962;2022-11-09T00:36:40;14.70;93.60
42973;DHT22;28610;51.214;6.962;2022-11-09T00:39:26;14.70;93.60
42973;DHT22;28610;51.214;6.962;2022-11-09T00:42:11;14.60;93.70
42973;DHT22;28610;51.214;6.962;2022-11-09T00:44:56;14.70;93.80
42973;DHT22;28610;51.214;6.962;2022-11-09T00:47:43;14.70;93.60
42973;DHT22;28610;51.214;6.962;2022-11-09T00:50:30;14.60;93.60
42973;DHT22;28610;51.214;6.962;2022-11-09T00:53:15;14.70;93.80
42973;DHT22;28610;51.214;6.962;2022-11-09T00:56:03;14.60;93.90
42973;DHT22;28610;51.214;6.962;2022-11-09T00:58:51;14.60;93.90
42973;DHT22;28610;51.214;6.962;2022-11-09T01:01:37;14.60;93.90
42973;DHT22;28610;51.214;6.962;2022-11-09T01:04:22;14.50;94.00
42973;DHT22;28610;51.214;6.962;2022-11-09T01:07:09;14.50;94.10
42973;DHT22;28610;51.214;6.962;2022-11-09T01:09:55;14.50;94.30
42973;DHT22;28610;51.214;6.962;2022-11-09T01:12:40;14.40;94.30
42973;DHT22;28610;51.214;6.962;2022-11-09T01:15:26;14.50;94.20
42973;DHT22;28610;51.214;6.962;2022-11-09T01:18:12;14.50;94.20
42973;DHT22;28610;51.214;6.962;2022-11-09T01:20:58;14.50;94.30
42973;DHT22;28610;51.214;6.962;2022-11-09T01:23:45;14.50;94.30
42973;DHT22;28610;51.214;6.962;2022-11-09T01:26:30;14.50;94.20
42973;DHT22;28610;51.214;6.962;2022-11-09T01:29:16;14.40;94.30
42973;DHT22;28610;51.214;6.962;2022-11-09T01:32:02;14.50;94.20
42973;DHT22;28610;51.214;6.962;2022-11-09T01:34:47;14.50;94.20
42973;DHT22;28610;51.214;6.962;2022-11-09T01:37:33;14.50;94.10
42973;DHT22;28610;51.214;6.962;2022-11-09T01:40:20;14.50;94.10
42973;DHT22;28610;51.214;6.962;2022-11-09T01:43:11;14.40;94.10
42973;DHT22;28610;51.214;6.962;2022-11-09T01:46:02;14.50;94.20
42973;DHT22;28610;51.214;6.962;2022-11-09T01:48:52;14.50;94.20
42973;DHT22;28610;51.214;6.962;2022-11-09T01:51:41;14.40;94.20
42973;DHT22;28610;51.214;6.962;2022-11-09T01:54:30;14.40;94.20
42973;DHT22;28610;51.214;6.962;2022-11-09T01:57:20;14.40;94.10
42973;DHT22;28610;51.214;6.962;2022-11-09T02:00:10;14.40;94.10
42973;DHT22;28610;51.214;6.962;2022-11-09T02:02:58;14.40;94.10
42973;DHT22;28610;51.214;6.962;2022-11-09T02:05:46;14.40;94.10
42973;DHT22;28610;51.214;6.962;2022-11-09T02:08:32;14.40;94.20
42973;DHT22;28610;51.214;6.962;2022-11-09T02:11:19;14.40;94.20
42973;DHT22;28610;51.214;6.962;2022-11-09T02:14:06;14.40;94.20
42973;DHT22;28610;51.214;6.962;2022-11-09T02:16:52;14.40;94.20
42973;DHT22;28610;51.214;6.962;2022-11-09T02:19:37;14.40;94.20
42973;DHT22;28610;51.214;6.962;2022-11-09T02:22:24;14.30;94.30
42973;DHT22;28610;51.214;6.962;2022-11-09T02:25:12;14.30;94.30
42973;DHT22;28610;51.214;6.962;2022-11-09T02:27:58;14.30;94.30
42973;DHT22;28610;51.214;6.962;2022-11-09T02:30:47;14.30;94.20
42973;DHT22;28610;51.214;6.962;2022-11-09T02:33:42;14.30;93.90
42973;DHT22;28610;51.214;6.962;2022-11-09T02:36:27;14.40;93.90
42973;DHT22;28610;51.214;6.962;2022-11-09T02:39:17;14.40;94.00
42973;DHT22;28610;51.214;6.962;2022-11-09T02:42:07;14.40;93.90
42973;DHT22;28610;51.214;6.962;2022-11-09T02:44:56;14.40;93.80
42973;DHT22;28610;51.214;6.962;2022-11-09T02:47:42;14.40;94.20
42973;DHT22;28610;51.214;6.962;2022-11-09T02:50:28;14.40;93.80
42973;DHT22;28610;51.214;6.962;2022-11-09T02:53:13;14.40;93.80
42973;DHT22;28610;51.214;6.962;2022-11-09T02:56:00;14.40;93.90
42973;DHT22;28610;51.214;6.962;2022-11-09T02:58:46;14.40;93.60
42973;DHT22;28610;51.214;6.962;2022-11-09T03:01:32;14.30;93.70
42973;DHT22;28610;51.214;6.962;2022-11-09T03:04:17;14.30;93.60
42973;DHT22;28610;51.214;6.962;2022-11-09T03:07:03;14.30;93.60
42973;DHT22;28610;51.214;6.962;2022-11-09T03:09:48;14.30;93.40
42973;DHT22;28610;51.214;6.962;2022-11-09T03:12:35;14.30;93.40
42973;DHT22;28610;51.214;6.962;2022-11-09T03:15:21;14.30;93.40
42973;DHT22;28610;51.214;6.962;2022-11-09T03:18:06;14.40;93.30
42973;DHT22;28610;51.214;6.962;2022-11-09T03:20:52;14.40;93.30
42973;DHT22;28610;51.214;6.962;2022-11-09T03:23:37;14.30;93.40
42973;DHT22;28610;51.214;6.962;2022-11-09T03:26:23;14.40;93.40
42973;DHT22;28610;51.214;6.962;2022-11-09T03:29:10;14.30;93.50
42973;DHT22;28610;51.214;6.962;2022-11-09T03:31:55;14.30;93.60
42973;DHT22;28610;51.214;6.962;2022-11-09T03:34:41;14.30;93.70
42973;DHT22;28610;51.214;6.962;2022-11-09T03:37:26;14.30;93.90
42973;DHT22;28610;51.214;6.962;2022-11-09T03:40:12;14.30;94.10
42973;DHT22;28610;51.214;6.962;2022-11-09T03:42:57;14.20;94.10
42973;DHT22;28610;51.214;6.962;2022-11-09T03:45:45;14.20;94.30
42973;DHT22;28610;51.214;6.962;2022-11-09T03:48:31;14.20;94.40
42973;DHT22;28610;51.214;6.962;2022-11-09T03:51:17;14.20;94.50
42973;DHT22;28610;51.214;6.962;2022-11-09T03:54:03;14.30;94.50
42973;DHT22;28610;51.214;6.962;2022-11-09T03:56:48;14.30;94.50
42973;DHT22;28610;51.214;6.962;2022-11-09T03:59:33;14.30;94.50
42973;DHT22;28610;51.214;6.962;2022-11-09T04:02:20;14.30;94.50
42973;DHT22;28610;51.214;6.962;2022-11-09T04:05:07;14.30;94.50
42973;DHT22;28610;51.214;6.962;2022-11-09T04:07:54;14.30;94.50
42973;DHT22;28610;51.214;6.962;2022-11-09T04:10:40;14.30;94.60
42973;DHT22;28610;51.214;6.962;2022-11-09T04:13:25;14.20;94.40
42973;DHT22;28610;51.214;6.962;2022-11-09T04:16:10;14.30;94.40
42973;DHT22;28610;51.214;6.962;2022-11-09T04:18:57;14.30;94.40
42973;DHT22;28610;51.214;6.962;2022-11-09T04:21:43;14.30;94.30
42973;DHT22;28610;51.214;6.962;2022-11-09T04:24:28;14.30;94.20
42973;DHT22;28610;51.214;6.962;2022-11-09T04:27:14;14.40;94.20
42973;DHT22;28610;51.214;6.962;2022-11-09T04:29:59;14.40;94.20
42973;DHT22;28610;51.214;6.962;2022-11-09T04:32:45;14.30;94.20
42973;DHT22;28610;51.214;6.962;2022-11-09T04:35:32;14.40;94.40
42973;DHT22;28610;51.214;6.962;2022-11-09T04:38:17;14.40;94.40
42973;DHT22;28610;51.214;6.962;2022-11-09T04:41:03;14.30;94.50
42973;DHT22;28610;51.214;6.962;2022-11-09T04:43:49;14.30;94.50
42973;DHT22;28610;51.214;6.962;2022-11-09T04:46:34;14.30;94.50
42973;DHT22;28610;51.214;6.962;2022-11-09T04:49:20;14.30;94.60
42973;DHT22;28610;51.214;6.962;2022-11-09T04:52:07;14.30;94.70
42973;DHT22;28610;51.214;6.962;2022-11-09T04:54:52;14.30;94.70
42973;DHT22;28610;51.214;6.962;2022-11-09T04:57:38;14.30;94.90
42973;DHT22;28610;51.214;6.962;2022-11-09T05:00:23;14.30;94.80
42973;DHT22;28610;51.214;6.962;2022-11-09T05:03:09;14.30;95.10
42973;DHT22;28610;51.214;6.962;2022-11-09T05:05:55;14.30;95.20
42973;DHT22;28610;51.214;6.962;2022-11-09T05:08:42;14.30;95.50
42973;DHT22;28610;51.214;6.962;2022-11-09T05:11:28;14.20;95.80
42973;DHT22;28610;51.214;6.962;2022-11-09T05:14:13;14.20;96.10
42973;DHT22;28610;51.214;6.962;2022-11-09T05:16:59;14.10;96.40
42973;DHT22;28610;51.214;6.962;2022-11-09T05:19:44;14.10;96.40
42973;DHT22;28610;51.214;6.962;2022-11-09T05:22:30;14.10;96.80
42973;DHT22;28610;51.214;6.962;2022-11-09T05:25:34;14.00;97.00
42973;DHT22;28610;51.214;6.962;2022-11-09T05:28:20;13.90;96.90
42973;DHT22;28610;51.214;6.962;2022-11-09T05:31:06;13.90;97.00
42973;DHT22;28610;51.214;6.962;2022-11-09T05:33:51;13.80;97.50
42973;DHT22;28610;51.214;6.962;2022-11-09T05:36:37;13.90;97.40
42973;DHT22;28610;51.214;6.962;2022-11-09T05:39:22;13.80;97.60
42973;DHT22;28610;51.214;6.962;2022-11-09T05:42:09;13.80;98.00
42973;DHT22;28610;51.214;6.962;2022-11-09T05:44:54;13.70;96.80
42973;DHT22;28610;51.214;6.962;2022-11-09T05:47:42;13.80;96.30
42973;DHT22;28610;51.214;6.962;2022-11-09T05:50:28;13.80;96.40
42973;DHT22;28610;51.214;6.962;2022-11-09T05:53:13;13.80;96.70
42973;DHT22;28610;51.214;6.962;2022-11-09T05:56:03;13.70;96.50
42973;DHT22;28610;51.214;6.962;2022-11-09T05:58:49;13.70;96.40
42973;DHT22;28610;51.214;6.962;2022-11-09T06:01:35;13.70;96.20
42973;DHT22;28610;51.214;6.962;2022-11-09T06:04:20;13.70;95.70
42973;DHT22;28610;51.214;6.962;2022-11-09T06:07:05;13.70;96.30
42973;DHT22;28610;51.214;6.962;2022-11-09T06:09:51;13.70;96.30
42973;DHT22;28610;51.214;6.962;2022-11-09T06:12:36;13.60;96.70
42973;DHT22;28610;51.214;6.962;2022-11-09T06:15:23;13.60;96.80
42973;DHT22;28610;51.214;6.962;2022-11-09T06:18:09;13.60;97.00
42973;DHT22;28610;51.214;6.962;2022-11-09T06:20:56;13.50;97.30
42973;DHT22;28610;51.214;6.962;2022-11-09T06:23:41;13.40;97.40
42973;DHT22;28610;51.214;6.962;2022-11-09T06:26:27;13.50;97.70
42973;DHT22;28610;51.214;6.962;2022-11-09T06:29:12;13.50;97.70
42973;DHT22;28610;51.214;6.962;2022-11-09T06:31:59;13.40;97.60
42973;DHT22;28610;51.214;6.962;2022-11-09T06:34:45;13.40;97.40
42973;DHT22;28610;51.214;6.962;2022-11-09T06:37:32;13.40;97.50
42973;DHT22;28610;51.214;6.962;2022-11-09T06:40:18;13.40;97.40
42973;DHT22;28610;51.214;6.962;2022-11-09T06:43:03;13.30;97.60
42973;DHT22;28610;51.214;6.962;2022-11-09T06:45:49;13.30;98.10
42973;DHT22;28610;51.214;6.962;2022-11-09T06:48:36;13.30;98.60
42973;DHT22;28610;51.214;6.962;2022-11-09T06:51:22;13.30;98.80
42973;DHT22;28610;51.214;6.962;2022-11-09T06:54:07;13.20;99.10
42973;DHT22;28610;51.214;6.962;2022-11-09T06:56:53;13.20;99.20
42973;DHT22;28610;51.214;6.962;2022-11-09T06:59:38;13.20;99.60
42973;DHT22;28610;51.214;6.962;2022-11-09T07:02:24;13.20;99.70
42973;DHT22;28610;51.214;6.962;2022-11-09T07:05:11;13.20;99.80
42973;DHT22;28610;51.214;6.962;2022-11-09T07:07:56;13.20;99.80
42973;DHT22;28610;51.214;6.962;2022-11-09T07:10:43;13.20;99.80
42973;DHT22;28610;51.214;6.962;2022-11-09T07:13:28;13.20;99.80
42973;DHT22;28610;51.214;6.962;2022-11-09T07:16:14;13.20;99.90
42973;DHT22;28610;51.214;6.962;2022-11-09T07:19:00;13.20;99.90
42973;DHT22;28610;51.214;6.962;2022-11-09T07:21:47;13.20;99.90
42973;DHT22;28610;51.214;6.962;2022-11-09T07:24:32;13.20;99.90
42973;DHT22;28610;51.214;6.962;2022-11-09T07:27:18;13.10;99.90
42973;DHT22;28610;51.214;6.962;2022-11-09T07:30:04;13.10;99.90
42973;DHT22;28610;51.214;6.962;2022-11-09T07:32:49;13.10;99.90
42973;DHT22;28610;51.214;6.962;2022-11-09T07:35:35;13.10;99.90
42973;DHT22;28610;51.214;6.962;2022-11-09T07:38:22;13.10;99.90
42973;DHT22;28610;51.214;6.962;2022-11-09T07:41:07;13.00;99.90
42973;DHT22;28610;51.214;6.962;2022-11-09T07:43:52;13.00;99.90
42973;DHT22;28610;51.214;6.962;2022-11-09T07:46:38;13.00;99.90
42973;DHT22;28610;51.214;6.962;2022-11-09T07:49:23;12.90;99.90
42973;DHT22;28610;51.214;6.962;2022-11-09T07:52:10;12.90;99.90
42973;DHT22;28610;51.214;6.962;2022-11-09T07:54:56;13.00;99.90
42973;DHT22;28610;51.214;6.962;2022-11-09T07:57:42;13.00;99.90
42973;DHT22;28610;51.214;6.962;2022-11-09T08:00:29;13.00;99.90
42973;DHT22;28610;51.214;6.962;2022-11-09T08:03:17;12.90;99.90
42973;DHT22;28610;51.214;6.962;2022-11-09T08:06:03;12.90;99.90
42973;DHT22;28610;51.214;6.962;2022-11-09T08:08:48;13.00;99.90
42973;DHT22;28610;51.214;6.962;2022-11-09T08:11:35;13.00;99.90
42973;DHT22;28610;51.214;6.962;2022-11-09T08:14:20;13.20;99.90
42973;DHT22;28610;51.214;6.962;2022-11-09T08:17:06;13.10;99.90
42973;DHT22;28610;51.214;6.962;2022-11-09T08:19:51;13.20;99.90
42973;DHT22;28610;51.214;6.962;2022-11-09T08:22:40;13.50;99.90
42973;DHT22;28610;51.214;6.962;2022-11-09T08:25:26;13.70;99.90
42973;DHT22;28610;51.214;6.962;2022-11-09T08:28:13;13.80;99.20
42973;DHT22;28610;51.214;6.962;2022-11-09T08:31:01;13.80;99.50
42973;DHT22;28610;51.214;6.962;2022-11-09T08:33:47;13.60;99.60
42973;DHT22;28610;51.214;6.962;2022-11-09T08:36:32;13.60;99.90
42973;DHT22;28610;51.214;6.962;2022-11-09T08:39:19;13.60;99.90
42973;DHT22;28610;51.214;6.962;2022-11-09T08:42:06;13.60;99.80
42973;DHT22;28610;51.214;6.962;2022-11-09T08:44:52;13.60;99.50
42973;DHT22;28610;51.214;6.962;2022-11-09T08:47:38;13.80;99.20
42973;DHT22;28610;51.214;6.962;2022-11-09T08:50:24;13.90;98.90
42973;DHT22;28610;51.214;6.962;2022-11-09T08:53:11;14.00;97.90
42973;DHT22;28610;51.214;6.962;2022-11-09T08:55:56;14.00;98.10
42973;DHT22;28610;51.214;6.962;2022-11-09T08:58:42;14.10;98.00
42973;DHT22;28610;51.214;6.962;2022-11-09T09:01:29;14.20;97.30
42973;DHT22;28610;51.214;6.962;2022-11-09T09:04:14;14.30;97.10
42973;DHT22;28610;51.214;6.962;2022-11-09T09:07:00;14.40;96.10
42973;DHT22;28610;51.214;6.962;2022-11-09T09:09:45;14.40;94.60
42973;DHT22;28610;51.214;6.962;2022-11-09T09:12:31;14.60;94.90
42973;DHT22;28610;51.214;6.962;2022-11-09T09:15:16;14.60;94.40
42973;DHT22;28610;51.214;6.962;2022-11-09T09:18:04;14.50;94.00
42973;DHT22;28610;51.214;6.962;2022-11-09T09:20:49;14.60;93.80
42973;DHT22;28610;51.214;6.962;2022-11-09T09:23:35;14.70;93.50
42973;DHT22;28610;51.214;6.962;2022-11-09T09:26:20;14.80;93.40
42973;DHT22;28610;51.214;6.962;2022-11-09T09:29:06;14.80;93.10
42973;DHT22;28610;51.214;6.962;2022-11-09T09:31:51;14.80;92.90
42973;DHT22;28610;51.214;6.962;2022-11-09T09:34:38;15.00;92.80
42973;DHT22;28610;51.214;6.962;2022-11-09T09:37:23;15.00;92.60
42973;DHT22;28610;51.214;6.962;2022-11-09T09:40:21;15.20;91.40
42973;DHT22;28610;51.214;6.962;2022-11-09T09:43:12;15.20;91.00
42973;DHT22;28610;51.214;6.962;2022-11-09T09:45:59;15.10;91.00
42973;DHT22;28610;51.214;6.962;2022-11-09T09:48:49;15.20;90.60
42973;DHT22;28610;51.214;6.962;2022-11-09T09:51:39;15.20;90.30
42973;DHT22;28610;51.214;6.962;2022-11-09T09:54:30;15.20;90.00
42973;DHT22;28610;51.214;6.962;2022-11-09T09:57:18;15.30;90.40
42973;DHT22;28610;51.214;6.962;2022-11-09T10:00:06;15.30;89.50
42973;DHT22;28610;51.214;6.962;2022-11-09T10:02:54;15.40;89.50
42973;DHT22;28610;51.214;6.962;2022-11-09T10:05:45;15.50;90.20
42973;DHT22;28610;51.214;6.962;2022-11-09T10:08:43;15.60;90.30
42973;DHT22;28610;51.214;6.962;2022-11-09T10:11:39;15.70;88.20
42973;DHT22;28610;51.214;6.962;2022-11-09T10:14:44;16.30;86.20
42973;DHT22;28610;51.214;6.962;2022-11-09T10:17:37;16.00;84.80
42973;DHT22;28610;51.214;6.962;2022-11-09T10:20:34;15.90;86.30
42973;DHT22;28610;51.214;6.962;2022-11-09T10:23:43;15.80;85.80
42973;DHT22;28610;51.214;6.962;2022-11-09T10:26:38;15.60;86.10
42973;DHT22;28610;51.214;6.962;2022-11-09T10:29:28;15.70;86.10
42973;DHT22;28610;51.214;6.962;2022-11-09T10:32:17;15.70;81.90
42973;DHT22;28610;51.214;6.962;2022-11-09T10:35:06;15.90;82.10
42973;DHT22;28610;51.214;6.962;2022-11-09T10:37:58;16.00;81.60
42973;DHT22;28610;51.214;6.962;2022-11-09T10:40:51;15.80;80.80
42973;DHT22;28610;51.214;6.962;2022-11-09T10:43:37;15.70;79.50
42973;DHT22;28610;51.214;6.962;2022-11-09T10:46:23;15.70;80.00
42973;DHT22;28610;51.214;6.962;2022-11-09T10:49:19;15.30;80.00
42973;DHT22;28610;51.214;6.962;2022-11-09T10:52:08;15.50;79.80
42973;DHT22;28610;51.214;6.962;2022-11-09T10:55:27;15.60;79.90
42973;DHT22;28610;51.214;6.962;2022-11-09T10:58:21;15.50;79.30
42973;DHT22;28610;51.214;6.962;2022-11-09T11:01:12;15.90;77.70
42973;DHT22;28610;51.214;6.962;2022-11-09T11:04:23;16.00;77.30
42973;DHT22;28610;51.214;6.962;2022-11-09T11:07:13;16.40;75.00
42973;DHT22;28610;51.214;6.962;2022-11-09T11:10:09;17.60;67.90
42973;DHT22;28610;51.214;6.962;2022-11-09T11:13:20;18.40;62.20
42973;DHT22;28610;51.214;6.962;2022-11-09T11:16:14;18.70;60.70
42973;DHT22;28610;51.214;6.962;2022-11-09T11:19:00;18.20;60.70
42973;DHT22;28610;51.214;6.962;2022-11-09T11:21:45;17.50;64.50
42973;DHT22;28610;51.214;6.962;2022-11-09T11:24:40;16.80;68.90
42973;DHT22;28610;51.214;6.962;2022-11-09T11:27:35;16.60;71.70
42973;DHT22;28610;51.214;6.962;2022-11-09T11:30:25;16.40;73.20
42973;DHT22;28610;51.214;6.962;2022-11-09T11:33:14;16.20;72.30
42973;DHT22;28610;51.214;6.962;2022-11-09T11:36:07;15.80;73.60
42973;DHT22;28610;51.214;6.962;2022-11-09T11:39:05;15.90;75.00
42973;DHT22;28610;51.214;6.962;2022-11-09T11:42:09;15.80;73.40
42973;DHT22;28610;51.214;6.962;2022-11-09T11:45:09;15.90;73.10
42973;DHT22;28610;51.214;6.962;2022-11-09T11:51:17;15.90;72.30
42973;DHT22;28610;51.214;6.962;2022-11-09T11:54:13;16.00;71.70
42973;DHT22;28610;51.214;6.962;2022-11-09T11:57:09;16.00;71.20
42973;DHT22;28610;51.214;6.962;2022-11-09T12:00:07;16.00;71.70
42973;DHT22;28610;51.214;6.962;2022-11-09T12:03:17;16.00;71.30
42973;DHT22;28610;51.214;6.962;2022-11-09T12:06:25;16.00;70.10
42973;DHT22;28610;51.214;6.962;2022-11-09T12:09:22;15.80;71.10
42973;DHT22;28610;51.214;6.962;2022-11-09T12:12:16;15.90;71.50
42973;DHT22;28610;51.214;6.962;2022-11-09T12:15:17;16.00;71.50
42973;DHT22;28610;51.214;6.962;2022-11-09T12:18:15;16.10;71.30
42973;DHT22;28610;51.214;6.962;2022-11-09T12:21:14;16.10;71.40
42973;DHT22;28610;51.214;6.962;2022-11-09T12:24:09;16.00;71.20
42973;DHT22;28610;51.214;6.962;2022-11-09T12:27:08;16.10;69.90
42973;DHT22;28610;51.214;6.962;2022-11-09T12:30:01;16.20;68.80
42973;DHT22;28610;51.214;6.962;2022-11-09T12:32:53;16.20;68.10
42973;DHT22;28610;51.214;6.962;2022-11-09T12:35:44;16.20;68.20
42973;DHT22;28610;51.214;6.962;2022-11-09T12:38:34;16.20;67.60
42973;DHT22;28610;51.214;6.962;2022-11-09T12:41:23;16.00;68.20
42973;DHT22;28610;51.214;6.962;2022-11-09T12:44:15;16.00;69.50
42973;DHT22;28610;51.214;6.962;2022-11-09T12:47:03;16.00;68.10
42973;DHT22;28610;51.214;6.962;2022-11-09T12:49:50;15.90;68.50
42973;DHT22;28610;51.214;6.962;2022-11-09T12:52:38;15.90;69.80
42973;DHT22;28610;51.214;6.962;2022-11-09T12:55:30;15.80;69.40
42973;DHT22;28610;51.214;6.962;2022-11-09T12:58:21;15.70;69.60
42973;DHT22;28610;51.214;6.962;2022-11-09T13:01:10;15.70;70.80
42973;DHT22;28610;51.214;6.962;2022-11-09T13:03:57;15.60;70.90
42973;DHT22;28610;51.214;6.962;2022-11-09T13:07:17;15.60;70.60
42973;DHT22;28610;51.214;6.962;2022-11-09T13:10:04;15.50;70.50
42973;DHT22;28610;51.214;6.962;2022-11-09T13:13:17;15.50;70.90
42973;DHT22;28610;51.214;6.962;2022-11-09T13:16:07;15.40;71.40
42973;DHT22;28610;51.214;6.962;2022-11-09T13:18:53;15.30;72.10
42973;DHT22;28610;51.214;6.962;2022-11-09T13:21:39;15.30;73.50
42973;DHT22;28610;51.214;6.962;2022-11-09T13:24:50;15.20;73.70
42973;DHT22;28610;51.214;6.962;2022-11-09T13:27:38;15.20;72.80
42973;DHT22;28610;51.214;6.962;2022-11-09T13:30:39;15.20;73.20
42973;DHT22;28610;51.214;6.962;2022-11-09T13:33:25;15.40;73.30
42973;DHT22;28610;51.214;6.962;2022-11-09T13:36:20;15.30;72.90
42973;DHT22;28610;51.214;6.962;2022-11-09T13:39:27;15.40;73.60
42973;DHT22;28610;51.214;6.962;2022-11-09T13:42:27;15.30;74.00
42973;DHT22;28610;51.214;6.962;2022-11-09T13:45:25;15.20;74.90
42973;DHT22;28610;51.214;6.962;2022-11-09T13:48:36;15.20;75.10
42973;DHT22;28610;51.214;6.962;2022-11-09T13:51:35;15.20;75.20
42973;DHT22;28610;51.214;6.962;2022-11-09T13:54:29;15.20;75.60
42973;DHT22;28610;51.214;6.962;2022-11-09T13:57:15;15.20;76.10
42973;DHT22;28610;51.214;6.962;2022-11-09T14:00:04;15.20;76.60
42973;DHT22;28610;51.214;6.962;2022-11-09T14:02:59;15.20;76.70
42973;DHT22;28610;51.214;6.962;2022-11-09T14:05:49;15.20;77.10
42973;DHT22;28610;51.214;6.962;2022-11-09T14:08:35;15.30;77.30
42973;DHT22;28610;51.214;6.962;2022-11-09T14:11:33;15.20;77.00
42973;DHT22;28610;51.214;6.962;2022-11-09T14:17:48;15.20;75.80
42973;DHT22;28610;51.214;6.962;2022-11-09T14:20:39;15.20;75.70
42973;DHT22;28610;51.214;6.962;2022-11-09T14:23:28;15.10;75.50
42973;DHT22;28610;51.214;6.962;2022-11-09T14:26:17;15.00;75.50
42973;DHT22;28610;51.214;6.962;2022-11-09T14:29:10;14.90;76.10
42973;DHT22;28610;51.214;6.962;2022-11-09T14:31:56;15.00;76.40
42973;DHT22;28610;51.214;6.962;2022-11-09T14:34:43;14.90;76.90
42973;DHT22;28610;51.214;6.962;2022-11-09T14:37:28;15.00;77.40
42973;DHT22;28610;51.214;6.962;2022-11-09T14:40:22;14.90;77.80
42973;DHT22;28610;51.214;6.962;2022-11-09T14:43:19;14.90;78.10
42973;DHT22;28610;51.214;6.962;2022-11-09T14:46:15;14.90;78.50
42973;DHT22;28610;51.214;6.962;2022-11-09T14:49:03;14.80;79.20
42973;DHT22;28610;51.214;6.962;2022-11-09T14:51:50;14.80;79.20
42973;DHT22;28610;51.214;6.962;2022-11-09T14:54:35;14.70;79.50
42973;DHT22;28610;51.214;6.962;2022-11-09T14:57:21;14.70;79.80
42973;DHT22;28610;51.214;6.962;2022-11-09T15:00:24;14.70;79.00
42973;DHT22;28610;51.214;6.962;2022-11-09T15:03:23;14.60;79.30
42973;DHT22;28610;51.214;6.962;2022-11-09T15:06:10;14.70;79.60
42973;DHT22;28610;51.214;6.962;2022-11-09T15:08:59;14.70;79.60
42973;DHT22;28610;51.214;6.962;2022-11-09T15:11:46;14.70;79.90
42973;DHT22;28610;51.214;6.962;2022-11-09T15:14:33;14.70;79.90
42973;DHT22;28610;51.214;6.962;2022-11-09T15:17:22;14.80;80.30
42973;DHT22;28610;51.214;6.962;2022-11-09T15:20:25;14.70;80.00
42973;DHT22;28610;51.214;6.962;2022-11-09T15:23:22;14.60;80.30
42973;DHT22;28610;51.214;6.962;2022-11-09T15:29:02;14.50;81.40
42973;DHT22;28610;51.214;6.962;2022-11-09T15:32:17;14.50;81.60
42973;DHT22;28610;51.214;6.962;2022-11-09T15:35:14;14.50;82.10
42973;DHT22;28610;51.214;6.962;2022-11-09T15:38:00;14.40;82.50
42973;DHT22;28610;51.214;6.962;2022-11-09T15:40:45;14.40;82.90
42973;DHT22;28610;51.214;6.962;2022-11-09T15:43:31;14.40;83.40
42973;DHT22;28610;51.214;6.962;2022-11-09T15:46:18;14.40;83.30
42973;DHT22;28610;51.214;6.962;2022-11-09T15:49:14;14.30;83.70
42973;DHT22;28610;51.214;6.962;2022-11-09T15:52:00;14.30;83.80
42973;DHT22;28610;51.214;6.962;2022-11-09T15:54:45;14.30;84.40
42973;DHT22;28610;51.214;6.962;2022-11-09T15:57:31;14.30;84.70
42973;DHT22;28610;51.214;6.962;2022-11-09T16:00:21;14.20;85.00
42973;DHT22;28610;51.214;6.962;2022-11-09T16:03:07;14.20;85.20
42973;DHT22;28610;51.214;6.962;2022-11-09T16:05:55;14.20;85.30
42973;DHT22;28610;51.214;6.962;2022-11-09T16:08:42;14.10;85.80
42973;DHT22;28610;51.214;6.962;2022-11-09T16:11:27;14.20;85.80
42973;DHT22;28610;51.214;6.962;2022-11-09T16:14:13;14.10;86.60
42973;DHT22;28610;51.214;6.962;2022-11-09T16:17:00;14.10;86.90
42973;DHT22;28610;51.214;6.962;2022-11-09T16:19:46;14.00;89.50
42973;DHT22;28610;51.214;6.962;2022-11-09T16:22:33;14.00;90.20
42973;DHT22;28610;51.214;6.962;2022-11-09T16:25:18;13.90;90.20
42973;DHT22;28610;51.214;6.962;2022-11-09T16:28:04;13.80;90.20
42973;DHT22;28610;51.214;6.962;2022-11-09T16:30:49;13.80;90.30
42973;DHT22;28610;51.214;6.962;2022-11-09T16:33:35;13.80;90.20
42973;DHT22;28610;51.214;6.962;2022-11-09T16:36:22;13.70;89.20
42973;DHT22;28610;51.214;6.962;2022-11-09T16:39:10;13.70;89.00
42973;DHT22;28610;51.214;6.962;2022-11-09T16:42:01;13.60;88.70
42973;DHT22;28610;51.214;6.962;2022-11-09T16:44:49;13.60;89.10
42973;DHT22;28610;51.214;6.962;2022-11-09T16:47:45;13.50;89.50
42973;DHT22;28610;51.214;6.962;2022-11-09T16:50:31;13.40;89.80
42973;DHT22;28610;51.214;6.962;2022-11-09T16:53:17;13.40;90.00
42973;DHT22;28610;51.214;6.962;2022-11-09T16:56:05;13.30;90.00
42973;DHT22;28610;51.214;6.962;2022-11-09T16:58:50;13.30;90.10
42973;DHT22;28610;51.214;6.962;2022-11-09T17:01:36;13.20;90.10
42973;DHT22;28610;51.214;6.962;2022-11-09T17:04:22;13.20;90.10
42973;DHT22;28610;51.214;6.962;2022-11-09T17:07:08;13.10;90.30
42973;DHT22;28610;51.214;6.962;2022-11-09T17:09:54;13.10;90.50
42973;DHT22;28610;51.214;6.962;2022-11-09T17:12:41;13.10;90.40
42973;DHT22;28610;51.214;6.962;2022-11-09T17:15:26;13.10;90.60
42973;DHT22;28610;51.214;6.962;2022-11-09T17:18:13;13.00;90.60
42973;DHT22;28610;51.214;6.962;2022-11-09T17:20:58;13.00;90.60
42973;DHT22;28610;51.214;6.962;2022-11-09T17:23:44;13.00;90.50
42973;DHT22;28610;51.214;6.962;2022-11-09T17:26:30;13.00;90.60
42973;DHT22;28610;51.214;6.962;2022-11-09T17:29:17;13.00;90.80
42973;DHT22;28610;51.214;6.962;2022-11-09T17:32:03;12.90;90.90
42973;DHT22;28610;51.214;6.962;2022-11-09T17:34:49;13.00;91.00
42973;DHT22;28610;51.214;6.962;2022-11-09T17:37:34;13.00;91.00
42973;DHT22;28610;51.214;6.962;2022-11-09T17:40:20;13.00;91.00
42973;DHT22;28610;51.214;6.962;2022-11-09T17:43:05;13.00;90.90
42973;DHT22;28610;51.214;6.962;2022-11-09T17:45:52;13.10;90.90
42973;DHT22;28610;51.214;6.962;2022-11-09T17:48:38;13.10;91.00
42973;DHT22;28610;51.214;6.962;2022-11-09T17:51:24;13.10;91.60
42973;DHT22;28610;51.214;6.962;2022-11-09T17:54:09;13.10;91.90